createdAt,value
2016-12-17T00:00:09.484Z,54.06
2016-12-17T00:00:35.467Z,54.09
2016-12-17T00:01:01.450Z,54.06
2016-12-17T00:01:27.433Z,54.09
2016-12-17T00:01:53.414Z,53.96
2016-12-17T00:02:19.395Z,53.87
2016-12-17T00:02:45.393Z,54.06
2016-12-17T00:03:11.387Z,53.89
2016-12-17T00:03:37.381Z,54.06
2016-12-17T00:04:03.375Z,53.99
2016-12-17T00:04:29.355Z,53.96
2016-12-17T00:04:55.345Z,53.96
2016-12-17T00:05:21.331Z,53.96
2016-12-17T00:05:47.319Z,53.87
2016-12-17T00:06:13.304Z,53.87
2016-12-17T00:06:39.290Z,54.09
2016-12-17T00:07:05.274Z,53.96
2016-12-17T00:07:31.257Z,53.96
2016-12-17T00:07:57.241Z,54.09
2016-12-17T00:08:23.224Z,54.06
2016-12-17T00:08:49.210Z,53.96
2016-12-17T00:09:15.203Z,53.96
2016-12-17T00:09:41.193Z,53.87
2016-12-17T00:10:07.202Z,53.96
2016-12-17T00:10:33.193Z,53.77
2016-12-17T00:10:59.191Z,53.87
2016-12-17T00:11:25.174Z,53.87
2016-12-17T00:11:51.160Z,53.87
2016-12-17T00:12:17.144Z,54.18
2016-12-17T00:12:43.127Z,53.87
2016-12-17T00:13:09.112Z,53.96
2016-12-17T00:13:35.099Z,54.06
2016-12-17T00:14:01.084Z,53.87
2016-12-17T00:14:27.065Z,54.06
2016-12-17T00:14:53.051Z,53.87
2016-12-17T00:15:19.034Z,53.87
2016-12-17T00:15:45.019Z,53.99
2016-12-17T00:16:11.004Z,54.18
2016-12-17T00:16:36.998Z,54.06
2016-12-17T00:17:02.983Z,54.06
2016-12-17T00:17:28.965Z,53.96
2016-12-17T00:17:54.955Z,53.96
2016-12-17T00:18:20.947Z,53.96
2016-12-17T00:18:46.946Z,53.77
2016-12-17T00:19:12.928Z,53.99
2016-12-17T00:19:38.932Z,53.99
2016-12-17T00:20:04.913Z,53.96
2016-12-17T00:20:30.916Z,53.77
2016-12-17T00:20:56.903Z,53.96
2016-12-17T00:21:22.889Z,53.87
2016-12-17T00:21:48.875Z,53.77
2016-12-17T00:22:14.869Z,54.16
2016-12-17T00:22:40.840Z,53.99
2016-12-17T00:23:06.836Z,53.89
2016-12-17T00:23:32.825Z,54.18
2016-12-17T00:23:58.842Z,54.09
2016-12-17T00:24:24.828Z,54.06
2016-12-17T00:24:50.816Z,54.16
2016-12-17T00:25:16.822Z,54.16
2016-12-17T00:25:42.799Z,54.18
2016-12-17T00:26:08.785Z,54.16
2016-12-17T00:26:34.786Z,53.96
2016-12-17T00:27:00.769Z,53.87
2016-12-17T00:27:26.754Z,54.06
2016-12-17T00:27:52.739Z,54.16
2016-12-17T00:28:18.723Z,54.06
2016-12-17T00:28:44.707Z,54.06
2016-12-17T00:29:10.692Z,54.06
2016-12-17T00:29:36.678Z,54.06
2016-12-17T00:30:02.663Z,53.77
2016-12-17T00:30:28.651Z,54.06
2016-12-17T00:30:54.639Z,53.87
2016-12-17T00:31:20.630Z,53.96
2016-12-17T00:31:46.626Z,54.06
2016-12-17T00:32:12.611Z,54.06
2016-12-17T00:32:38.600Z,54.06
2016-12-17T00:33:04.582Z,54.06
2016-12-17T00:33:30.565Z,54.06
2016-12-17T00:33:56.550Z,53.87
2016-12-17T00:34:22.536Z,54.06
2016-12-17T00:34:48.518Z,53.87
2016-12-17T00:35:14.507Z,53.87
2016-12-17T00:35:40.490Z,54.06
2016-12-17T00:36:06.474Z,54.06
2016-12-17T00:36:32.456Z,54.06
2016-12-17T00:36:58.447Z,54.06
2016-12-17T00:37:24.436Z,54.09
2016-12-17T00:37:50.433Z,54.06
2016-12-17T00:38:16.412Z,54.06
2016-12-17T00:38:42.398Z,53.87
2016-12-17T00:39:08.386Z,54.06
2016-12-17T00:39:34.368Z,53.87
2016-12-17T00:40:00.351Z,53.87
2016-12-17T00:40:26.333Z,54.16
2016-12-17T00:40:52.318Z,53.77
2016-12-17T00:41:18.297Z,54.06
2016-12-17T00:41:44.286Z,53.77
2016-12-17T00:42:10.270Z,54.06
2016-12-17T00:42:36.256Z,54.06
2016-12-17T00:43:02.245Z,54.06
2016-12-17T00:43:28.229Z,53.77
2016-12-17T00:43:54.215Z,53.87
2016-12-17T00:44:20.199Z,54.06
2016-12-17T00:44:46.184Z,54.06
2016-12-17T00:45:12.171Z,53.87
2016-12-17T00:45:38.153Z,54.06
2016-12-17T00:46:04.137Z,54.16
2016-12-17T00:46:30.121Z,53.87
2016-12-17T00:46:56.106Z,54.06
2016-12-17T00:47:22.092Z,53.87
2016-12-17T00:47:48.076Z,54.06
2016-12-17T00:48:14.069Z,54.06
2016-12-17T00:48:40.055Z,53.87
2016-12-17T00:49:06.054Z,53.87
2016-12-17T00:49:32.038Z,54.16
2016-12-17T00:49:58.022Z,54.06
2016-12-17T00:50:24.008Z,54.25
2016-12-17T00:50:49.989Z,54.25
2016-12-17T00:51:15.973Z,53.87
2016-12-17T00:51:41.958Z,53.96
2016-12-17T00:52:07.943Z,53.87
2016-12-17T00:52:33.927Z,53.96
2016-12-17T00:52:59.919Z,53.87
2016-12-17T00:53:25.922Z,54.06
2016-12-17T00:53:51.897Z,54.06
2016-12-17T00:54:17.884Z,54.06
2016-12-17T00:54:43.876Z,54.16
2016-12-17T00:55:09.864Z,54.16
2016-12-17T00:55:35.907Z,54.06
2016-12-17T00:56:01.910Z,53.87
2016-12-17T00:56:27.887Z,54.16
2016-12-17T00:56:53.871Z,54.35
2016-12-17T00:57:19.866Z,53.96
2016-12-17T00:57:45.851Z,53.96
2016-12-17T00:58:11.833Z,54.35
2016-12-17T00:58:37.820Z,54.25
2016-12-17T00:59:03.803Z,53.96
2016-12-17T00:59:29.789Z,54.35
2016-12-17T00:59:55.776Z,54.25
2016-12-17T01:00:21.757Z,54.25
2016-12-17T01:00:47.745Z,54.35
2016-12-17T01:01:13.726Z,54.44
2016-12-17T01:01:39.711Z,54.35
2016-12-17T01:02:05.697Z,54.25
2016-12-17T01:02:31.683Z,54.35
2016-12-17T01:02:57.675Z,54.35
2016-12-17T01:03:23.657Z,54.35
2016-12-17T01:03:49.645Z,54.25
2016-12-17T01:04:15.626Z,54.35
2016-12-17T01:04:41.609Z,54.44
2016-12-17T01:05:07.596Z,54.35
2016-12-17T01:05:33.578Z,54.35
2016-12-17T01:05:59.561Z,54.35
2016-12-17T01:06:25.544Z,54.35
2016-12-17T01:06:51.530Z,54.44
2016-12-17T01:07:17.515Z,54.35
2016-12-17T01:07:43.499Z,54.35
2016-12-17T01:08:09.527Z,54.35
2016-12-17T01:08:35.507Z,54.35
2016-12-17T01:09:01.490Z,54.35
2016-12-17T01:09:27.487Z,54.35
2016-12-17T01:09:53.485Z,54.54
2016-12-17T01:10:19.631Z,54.44
2016-12-17T01:10:45.701Z,54.44
2016-12-17T01:11:11.705Z,54.44
2016-12-17T01:11:37.693Z,54.16
2016-12-17T01:12:03.676Z,54.35
2016-12-17T01:12:29.660Z,54.16
2016-12-17T01:12:55.647Z,54.44
2016-12-17T01:13:21.636Z,54.25
2016-12-17T01:13:47.620Z,54.25
2016-12-17T01:14:13.603Z,54.35
2016-12-17T01:14:39.587Z,54.35
2016-12-17T01:15:05.573Z,54.35
2016-12-17T01:15:31.559Z,54.44
2016-12-17T01:15:57.543Z,54.35
2016-12-17T01:16:23.528Z,54.25
2016-12-17T01:16:49.515Z,54.54
2016-12-17T01:17:15.503Z,54.44
2016-12-17T01:17:41.499Z,54.44
2016-12-17T01:18:07.485Z,54.35
2016-12-17T01:18:33.476Z,54.16
2016-12-17T01:18:59.458Z,54.44
2016-12-17T01:19:25.438Z,54.44
2016-12-17T01:19:51.423Z,54.44
2016-12-17T01:20:17.407Z,54.35
2016-12-17T01:20:43.401Z,54.44
2016-12-17T01:21:09.377Z,54.44
2016-12-17T01:21:35.359Z,54.25
2016-12-17T01:22:01.344Z,54.35
2016-12-17T01:22:27.328Z,54.44
2016-12-17T01:22:53.313Z,54.44
2016-12-17T01:23:19.306Z,54.44
2016-12-17T01:23:45.294Z,54.35
2016-12-17T01:24:11.277Z,54.44
2016-12-17T01:24:37.260Z,54.35
2016-12-17T01:25:03.244Z,54.44
2016-12-17T01:25:29.227Z,54.35
2016-12-17T01:25:55.210Z,54.44
2016-12-17T01:26:21.196Z,54.35
2016-12-17T01:26:47.177Z,54.35
2016-12-17T01:27:13.162Z,54.44
2016-12-17T01:27:39.148Z,54.44
2016-12-17T01:28:05.136Z,54.44
2016-12-17T01:28:31.116Z,54.44
2016-12-17T01:28:57.126Z,54.44
2016-12-17T01:29:23.113Z,54.44
2016-12-17T01:29:49.098Z,54.44
2016-12-17T01:30:15.080Z,54.44
2016-12-17T01:30:41.084Z,54.54
2016-12-17T01:31:07.077Z,54.44
2016-12-17T01:31:33.062Z,54.35
2016-12-17T01:31:59.045Z,54.35
2016-12-17T01:32:25.028Z,54.35
2016-12-17T01:32:51.011Z,54.25
2016-12-17T01:33:16.996Z,54.44
2016-12-17T01:33:42.984Z,54.44
2016-12-17T01:34:08.967Z,54.44
2016-12-17T01:34:34.952Z,54.35
2016-12-17T01:35:00.939Z,54.54
2016-12-17T01:35:26.929Z,54.35
2016-12-17T01:35:52.910Z,54.35
2016-12-17T01:36:18.893Z,54.35
2016-12-17T01:36:44.885Z,54.35
2016-12-17T01:37:10.865Z,54.35
2016-12-17T01:37:36.849Z,54.35
2016-12-17T01:38:02.830Z,54.35
2016-12-17T01:38:28.816Z,54.35
2016-12-17T01:38:54.798Z,54.35
2016-12-17T01:39:20.783Z,54.35
2016-12-17T01:39:46.768Z,54.35
2016-12-17T01:40:12.760Z,54.54
2016-12-17T01:40:38.749Z,54.35
2016-12-17T01:41:04.748Z,54.35
2016-12-17T01:41:30.736Z,54.25
2016-12-17T01:41:56.721Z,54.35
2016-12-17T01:42:22.704Z,54.54
2016-12-17T01:42:48.690Z,54.35
2016-12-17T01:43:14.673Z,54.44
2016-12-17T01:43:40.654Z,54.44
2016-12-17T01:44:06.643Z,54.35
2016-12-17T01:44:32.628Z,54.35
2016-12-17T01:44:58.628Z,54.44
2016-12-17T01:45:24.617Z,54.25
2016-12-17T01:45:50.598Z,54.44
2016-12-17T01:46:16.583Z,54.64
2016-12-17T01:46:42.568Z,54.44
2016-12-17T01:47:08.562Z,54.25
2016-12-17T01:47:34.554Z,54.44
2016-12-17T01:48:00.544Z,54.25
2016-12-17T01:48:26.530Z,54.44
2016-12-17T01:48:52.515Z,54.54
2016-12-17T01:49:18.499Z,54.35
2016-12-17T01:49:44.487Z,55.12
2016-12-17T01:50:10.470Z,55.12
2016-12-17T01:50:36.453Z,54.35
2016-12-17T01:51:02.439Z,55.02
2016-12-17T01:51:28.422Z,55.12
2016-12-17T01:51:54.408Z,54.64
2016-12-17T01:52:20.390Z,55.12
2016-12-17T01:52:46.377Z,55.02
2016-12-17T01:53:12.358Z,55.12
2016-12-17T01:53:38.353Z,54.64
2016-12-17T01:54:04.353Z,55.02
2016-12-17T01:54:30.345Z,54.54
2016-12-17T01:54:56.342Z,55.02
2016-12-17T01:55:22.327Z,54.54
2016-12-17T01:55:48.311Z,54.64
2016-12-17T01:56:14.293Z,54.83
2016-12-17T01:56:40.279Z,55.02
2016-12-17T01:57:06.266Z,55.12
2016-12-17T01:57:32.247Z,55.12
2016-12-17T01:57:58.229Z,54.93
2016-12-17T01:58:24.214Z,55.12
2016-12-17T01:58:50.196Z,55.12
2016-12-17T01:59:16.180Z,55.02
2016-12-17T01:59:42.170Z,55.12
2016-12-17T02:00:08.166Z,54.83
2016-12-17T02:00:34.149Z,54.93
2016-12-17T02:01:00.133Z,54.93
2016-12-17T02:01:26.115Z,54.93
2016-12-17T02:01:52.099Z,54.64
2016-12-17T02:02:18.084Z,54.64
2016-12-17T02:02:44.071Z,54.93
2016-12-17T02:03:10.056Z,55.12
2016-12-17T02:03:36.047Z,54.64
2016-12-17T02:04:02.039Z,54.64
2016-12-17T02:04:28.011Z,54.64
2016-12-17T02:04:54.008Z,54.93
2016-12-17T02:05:20.006Z,54.93
2016-12-17T02:05:45.995Z,54.64
2016-12-17T02:06:11.990Z,55.12
2016-12-17T02:06:37.978Z,54.64
2016-12-17T02:07:03.976Z,55.02
2016-12-17T02:07:29.959Z,54.93
2016-12-17T02:07:55.946Z,54.64
2016-12-17T02:08:21.930Z,54.64
2016-12-17T02:08:47.915Z,54.64
2016-12-17T02:09:13.898Z,54.74
2016-12-17T02:09:39.881Z,54.93
2016-12-17T02:10:05.864Z,54.74
2016-12-17T02:10:31.853Z,54.83
2016-12-17T02:10:57.830Z,54.64
2016-12-17T02:11:23.812Z,54.74
2016-12-17T02:11:49.798Z,54.74
2016-12-17T02:12:15.786Z,54.64
2016-12-17T02:12:41.785Z,55.02
2016-12-17T02:13:07.769Z,54.74
2016-12-17T02:13:33.754Z,54.74
2016-12-17T02:13:59.743Z,54.74
2016-12-17T02:14:25.728Z,54.83
2016-12-17T02:14:54.316Z,54.74
2016-12-17T02:15:23.340Z,54.93
2016-12-17T02:15:52.813Z,54.83
2016-12-17T02:16:22.139Z,54.93
2016-12-17T02:16:49.587Z,54.93
2016-12-17T02:17:16.066Z,54.93
2016-12-17T02:17:42.050Z,55.02
2016-12-17T02:18:08.036Z,54.83
2016-12-17T02:18:34.019Z,54.83
2016-12-17T02:19:00.009Z,54.83
2016-12-17T02:19:25.998Z,54.83
2016-12-17T02:19:51.994Z,54.93
2016-12-17T02:20:17.995Z,54.64
2016-12-17T02:20:43.981Z,54.83
2016-12-17T02:21:09.962Z,54.74
2016-12-17T02:21:35.945Z,54.83
2016-12-17T02:22:01.929Z,54.83
2016-12-17T02:22:27.910Z,54.74
2016-12-17T02:22:53.895Z,54.83
2016-12-17T02:23:19.877Z,54.74
2016-12-17T02:23:45.859Z,54.83
2016-12-17T02:24:11.845Z,54.93
2016-12-17T02:24:37.824Z,54.83
2016-12-17T02:25:03.816Z,54.83
2016-12-17T02:25:29.804Z,54.83
2016-12-17T02:25:55.788Z,54.93
2016-12-17T02:26:21.772Z,54.83
2016-12-17T02:26:47.756Z,54.74
2016-12-17T02:27:13.768Z,54.74
2016-12-17T02:27:39.724Z,54.74
2016-12-17T02:28:05.706Z,54.93
2016-12-17T02:28:31.689Z,54.83
2016-12-17T02:28:57.672Z,54.93
2016-12-17T02:29:23.659Z,54.74
2016-12-17T02:29:49.674Z,54.83
2016-12-17T02:30:15.661Z,54.83
2016-12-17T02:30:41.693Z,54.74
2016-12-17T02:31:07.676Z,54.74
2016-12-17T02:31:33.658Z,54.93
2016-12-17T02:31:59.643Z,54.93
2016-12-17T02:32:25.632Z,54.83
2016-12-17T02:32:51.618Z,54.83
2016-12-17T02:33:17.615Z,54.74
2016-12-17T02:33:43.603Z,54.74
2016-12-17T02:34:09.588Z,54.74
2016-12-17T02:34:35.572Z,54.93
2016-12-17T02:35:01.554Z,54.83
2016-12-17T02:35:27.541Z,54.83
2016-12-17T02:35:53.523Z,54.83
2016-12-17T02:36:19.508Z,54.93
2016-12-17T02:36:45.496Z,54.93
2016-12-17T02:37:11.476Z,54.83
2016-12-17T02:37:37.460Z,54.83
2016-12-17T02:38:03.467Z,54.83
2016-12-17T02:38:29.452Z,54.83
2016-12-17T02:38:55.438Z,54.74
2016-12-17T02:39:21.430Z,54.74
2016-12-17T02:39:47.431Z,54.93
2016-12-17T02:40:13.436Z,54.83
2016-12-17T02:40:39.428Z,54.74
2016-12-17T02:41:05.412Z,54.74
2016-12-17T02:41:31.397Z,54.93
2016-12-17T02:41:57.386Z,54.83
2016-12-17T02:42:23.382Z,54.83
2016-12-17T02:42:49.375Z,54.83
2016-12-17T02:43:15.390Z,54.93
2016-12-17T02:43:41.375Z,54.93
2016-12-17T02:44:07.357Z,54.83
2016-12-17T02:44:33.343Z,54.74
2016-12-17T02:44:59.325Z,54.83
2016-12-17T02:45:25.317Z,54.74
2016-12-17T02:45:51.302Z,54.83
2016-12-17T02:46:17.289Z,54.93
2016-12-17T02:46:43.273Z,54.93
2016-12-17T02:47:09.254Z,54.83
2016-12-17T02:47:35.252Z,54.83
2016-12-17T02:48:01.241Z,54.74
2016-12-17T02:48:27.239Z,54.83
2016-12-17T02:48:53.224Z,54.83
2016-12-17T02:49:19.208Z,54.83
2016-12-17T02:49:45.195Z,54.93
2016-12-17T02:50:11.181Z,54.64
2016-12-17T02:50:37.164Z,54.64
2016-12-17T02:51:03.146Z,54.83
2016-12-17T02:51:29.133Z,54.83
2016-12-17T02:51:55.119Z,54.74
2016-12-17T02:52:21.101Z,54.74
2016-12-17T02:52:47.088Z,54.74
2016-12-17T02:53:13.073Z,54.74
2016-12-17T02:53:39.071Z,54.93
2016-12-17T02:54:05.051Z,54.74
2016-12-17T02:54:31.034Z,54.93
2016-12-17T02:54:57.050Z,54.93
2016-12-17T02:55:23.034Z,54.93
2016-12-17T02:55:49.017Z,54.83
2016-12-17T02:56:15.003Z,54.64
2016-12-17T02:56:40.985Z,54.64
2016-12-17T02:57:06.969Z,54.74
2016-12-17T02:57:32.952Z,54.83
2016-12-17T02:57:58.937Z,54.83
2016-12-17T02:58:24.925Z,54.83
2016-12-17T02:58:50.907Z,54.83
2016-12-17T02:59:16.893Z,54.83
2016-12-17T02:59:42.877Z,54.83
2016-12-17T03:00:08.862Z,54.64
2016-12-17T03:00:34.858Z,54.74
2016-12-17T03:01:00.843Z,54.93
2016-12-17T03:01:26.830Z,54.83
2016-12-17T03:01:52.812Z,54.83
2016-12-17T03:02:18.798Z,54.83
2016-12-17T03:02:44.778Z,54.64
2016-12-17T03:03:10.760Z,54.74
2016-12-17T03:03:36.744Z,54.74
2016-12-17T03:04:02.727Z,54.64
2016-12-17T03:04:28.712Z,54.74
2016-12-17T03:04:54.698Z,54.64
2016-12-17T03:05:20.682Z,54.74
2016-12-17T03:05:46.679Z,54.74
2016-12-17T03:06:12.669Z,54.74
2016-12-17T03:06:38.664Z,54.83
2016-12-17T03:07:04.644Z,54.74
2016-12-17T03:07:30.628Z,54.83
2016-12-17T03:07:56.613Z,54.83
2016-12-17T03:08:22.597Z,54.83
2016-12-17T03:08:48.587Z,54.83
2016-12-17T03:09:14.573Z,54.64
2016-12-17T03:09:40.555Z,54.64
2016-12-17T03:10:06.540Z,54.93
2016-12-17T03:10:32.525Z,54.83
2016-12-17T03:10:58.512Z,54.93
2016-12-17T03:11:24.494Z,54.93
2016-12-17T03:11:50.489Z,54.74
2016-12-17T03:12:16.479Z,54.74
2016-12-17T03:12:42.461Z,54.64
2016-12-17T03:13:08.447Z,54.83
2016-12-17T03:13:34.447Z,54.74
2016-12-17T03:14:00.434Z,54.83
2016-12-17T03:14:26.434Z,54.83
2016-12-17T03:14:52.436Z,54.74
2016-12-17T03:15:18.440Z,54.64
2016-12-17T03:15:44.421Z,54.74
2016-12-17T03:16:10.420Z,54.83
2016-12-17T03:16:36.406Z,54.74
2016-12-17T03:17:02.393Z,54.74
2016-12-17T03:17:28.391Z,54.74
2016-12-17T03:17:54.372Z,54.74
2016-12-17T03:18:20.360Z,54.74
2016-12-17T03:18:46.343Z,54.64
2016-12-17T03:19:12.324Z,54.74
2016-12-17T03:19:38.308Z,54.74
2016-12-17T03:20:04.295Z,54.64
2016-12-17T03:20:30.291Z,54.74
2016-12-17T03:20:56.277Z,54.83
2016-12-17T03:21:22.260Z,54.74
2016-12-17T03:21:48.243Z,54.74
2016-12-17T03:22:14.632Z,54.93
2016-12-17T03:22:40.611Z,54.93
2016-12-17T03:23:06.595Z,54.93
2016-12-17T03:23:32.580Z,54.83
2016-12-17T03:23:58.565Z,54.83
2016-12-17T03:24:24.616Z,54.74
2016-12-17T03:24:50.600Z,54.74
2016-12-17T03:25:16.584Z,54.74
2016-12-17T03:25:42.567Z,54.83
2016-12-17T03:26:08.559Z,54.93
2016-12-17T03:26:34.541Z,54.64
2016-12-17T03:27:00.531Z,54.83
2016-12-17T03:27:26.517Z,54.74
2016-12-17T03:27:52.514Z,54.74
2016-12-17T03:28:18.508Z,54.83
2016-12-17T03:28:44.507Z,54.74
2016-12-17T03:29:10.505Z,54.74
2016-12-17T03:29:36.488Z,54.74
2016-12-17T03:30:02.474Z,54.74
2016-12-17T03:30:28.458Z,54.74
2016-12-17T03:30:54.441Z,54.83
2016-12-17T03:31:20.433Z,54.83
2016-12-17T03:31:46.410Z,54.83
2016-12-17T03:32:12.391Z,54.74
2016-12-17T03:32:38.372Z,54.74
2016-12-17T03:33:04.357Z,54.74
2016-12-17T03:33:30.340Z,54.74
2016-12-17T03:33:56.327Z,54.93
2016-12-17T03:34:22.319Z,54.83
2016-12-17T03:34:48.318Z,54.83
2016-12-17T03:35:14.313Z,54.74
2016-12-17T03:35:40.300Z,54.83
2016-12-17T03:36:06.283Z,54.64
2016-12-17T03:36:32.267Z,54.64
2016-12-17T03:36:58.251Z,54.74
2016-12-17T03:37:24.233Z,54.74
2016-12-17T03:37:50.221Z,54.83
2016-12-17T03:38:16.206Z,54.74
2016-12-17T03:38:42.193Z,54.74
2016-12-17T03:39:08.175Z,54.74
2016-12-17T03:39:34.160Z,54.74
2016-12-17T03:40:00.144Z,54.93
2016-12-17T03:40:26.135Z,54.64
2016-12-17T03:40:52.125Z,54.83
2016-12-17T03:41:18.107Z,54.64
2016-12-17T03:41:44.093Z,54.64
2016-12-17T03:42:10.074Z,54.64
2016-12-17T03:42:36.058Z,54.64
2016-12-17T03:43:02.042Z,54.83
2016-12-17T03:43:28.034Z,54.64
2016-12-17T03:43:54.024Z,54.74
2016-12-17T03:44:20.008Z,54.83
2016-12-17T03:44:45.988Z,54.64
2016-12-17T03:45:11.975Z,54.83
2016-12-17T03:45:37.958Z,54.64
2016-12-17T03:46:03.945Z,54.64
2016-12-17T03:46:29.935Z,54.83
2016-12-17T03:46:55.922Z,54.64
2016-12-17T03:47:21.905Z,54.83
2016-12-17T03:47:47.889Z,54.83
2016-12-17T03:48:13.897Z,54.83
2016-12-17T03:48:39.886Z,54.83
2016-12-17T03:49:05.886Z,54.83
2016-12-17T03:49:31.871Z,54.83
2016-12-17T03:49:57.864Z,54.93
2016-12-17T03:50:23.845Z,54.83
2016-12-17T03:50:49.829Z,54.93
2016-12-17T03:51:15.811Z,54.74
2016-12-17T03:51:41.800Z,54.54
2016-12-17T03:52:07.786Z,54.83
2016-12-17T03:52:33.771Z,54.64
2016-12-17T03:52:59.758Z,54.83
2016-12-17T03:53:25.748Z,54.83
2016-12-17T03:53:51.748Z,54.64
2016-12-17T03:54:17.730Z,54.83
2016-12-17T03:54:43.713Z,54.74
2016-12-17T03:55:09.700Z,54.74
2016-12-17T03:55:35.684Z,54.83
2016-12-17T03:56:01.672Z,54.64
2016-12-17T03:56:27.656Z,54.83
2016-12-17T03:56:53.652Z,54.83
2016-12-17T03:57:19.636Z,54.74
2016-12-17T03:57:45.618Z,54.83
2016-12-17T03:58:11.605Z,54.83
2016-12-17T03:58:37.588Z,54.83
2016-12-17T03:59:03.574Z,54.74
2016-12-17T03:59:29.557Z,54.64
2016-12-17T03:59:55.549Z,54.64
2016-12-17T04:00:21.530Z,54.93
2016-12-17T04:00:47.515Z,54.74
2016-12-17T04:01:13.502Z,54.83
2016-12-17T04:01:39.487Z,54.74
2016-12-17T04:02:05.469Z,54.64
2016-12-17T04:02:31.453Z,54.83
2016-12-17T04:02:57.438Z,54.64
2016-12-17T04:03:23.421Z,54.83
2016-12-17T04:03:49.406Z,54.93
2016-12-17T04:04:15.388Z,54.74
2016-12-17T04:04:41.380Z,54.93
2016-12-17T04:05:07.370Z,54.74
2016-12-17T04:05:33.363Z,54.64
2016-12-17T04:05:59.348Z,54.83
2016-12-17T04:06:25.332Z,54.64
2016-12-17T04:06:51.317Z,54.83
2016-12-17T04:07:17.309Z,54.83
2016-12-17T04:07:43.292Z,54.83
2016-12-17T04:08:09.279Z,54.83
2016-12-17T04:08:35.263Z,54.83
2016-12-17T04:09:01.249Z,54.83
2016-12-17T04:09:27.230Z,54.64
2016-12-17T04:09:53.215Z,54.83
2016-12-17T04:10:19.203Z,54.64
2016-12-17T04:10:45.188Z,54.64
2016-12-17T04:11:11.175Z,54.93
2016-12-17T04:11:37.174Z,54.64
2016-12-17T04:12:03.157Z,54.83
2016-12-17T04:12:29.146Z,54.83
2016-12-17T04:12:55.131Z,54.64
2016-12-17T04:13:21.132Z,54.64
2016-12-17T04:13:47.115Z,54.74
2016-12-17T04:14:13.096Z,54.74
2016-12-17T04:14:39.079Z,54.83
2016-12-17T04:15:05.069Z,54.93
2016-12-17T04:15:31.048Z,54.64
2016-12-17T04:15:57.034Z,54.74
2016-12-17T04:16:23.019Z,54.83
2016-12-17T04:16:49.002Z,54.93
2016-12-17T04:17:14.988Z,54.64
2016-12-17T04:17:40.985Z,54.83
2016-12-17T04:18:06.969Z,54.64
2016-12-17T04:18:32.954Z,54.83
2016-12-17T04:18:58.942Z,54.74
2016-12-17T04:19:24.926Z,54.83
2016-12-17T04:19:50.911Z,54.64
2016-12-17T04:20:16.896Z,54.64
2016-12-17T04:20:43.067Z,54.83
2016-12-17T04:21:09.055Z,54.64
2016-12-17T04:21:35.036Z,54.74
2016-12-17T04:22:01.019Z,54.64
2016-12-17T04:22:27.017Z,54.74
2016-12-17T04:22:53.006Z,54.93
2016-12-17T04:23:19.021Z,54.74
2016-12-17T04:23:45.010Z,54.74
2016-12-17T04:24:11.005Z,54.74
2016-12-17T04:24:36.995Z,54.83
2016-12-17T04:25:02.996Z,54.83
2016-12-17T04:25:28.980Z,54.74
2016-12-17T04:25:54.969Z,54.74
2016-12-17T04:26:20.953Z,54.74
2016-12-17T04:26:46.944Z,54.64
2016-12-17T04:27:12.927Z,54.64
2016-12-17T04:27:38.910Z,54.74
2016-12-17T04:28:04.894Z,54.64
2016-12-17T04:28:30.877Z,54.64
2016-12-17T04:28:56.862Z,54.83
2016-12-17T04:29:22.844Z,54.64
2016-12-17T04:29:48.827Z,54.74
2016-12-17T04:30:14.826Z,54.74
2016-12-17T04:30:40.810Z,54.83
2016-12-17T04:31:06.807Z,54.74
2016-12-17T04:31:32.792Z,54.64
2016-12-17T04:31:58.777Z,54.93
2016-12-17T04:32:24.764Z,54.74
2016-12-17T04:32:50.748Z,54.93
2016-12-17T04:33:16.732Z,54.64
2016-12-17T04:33:42.718Z,54.64
2016-12-17T04:34:08.699Z,54.93
2016-12-17T04:34:34.683Z,54.74
2016-12-17T04:35:00.666Z,54.83
2016-12-17T04:35:26.651Z,54.93
2016-12-17T04:35:52.634Z,54.74
2016-12-17T04:36:18.622Z,54.93
2016-12-17T04:36:44.618Z,54.74
2016-12-17T04:37:10.602Z,54.83
2016-12-17T04:37:36.589Z,54.83
2016-12-17T04:38:02.572Z,54.74
2016-12-17T04:38:28.555Z,54.83
2016-12-17T04:38:54.553Z,54.64
2016-12-17T04:39:20.524Z,54.83
2016-12-17T04:39:46.511Z,54.83
2016-12-17T04:40:12.495Z,54.83
2016-12-17T04:40:38.481Z,54.74
2016-12-17T04:41:04.465Z,54.93
2016-12-17T04:41:30.448Z,54.93
2016-12-17T04:41:56.436Z,54.64
2016-12-17T04:42:22.429Z,54.83
2016-12-17T04:42:48.430Z,54.74
2016-12-17T04:43:14.424Z,54.64
2016-12-17T04:43:40.399Z,54.83
2016-12-17T04:44:06.386Z,54.64
2016-12-17T04:44:32.372Z,54.74
2016-12-17T04:44:58.356Z,54.83
2016-12-17T04:45:24.341Z,54.83
2016-12-17T04:45:50.323Z,54.83
2016-12-17T04:46:16.310Z,54.83
2016-12-17T04:46:42.292Z,54.74
2016-12-17T04:47:08.275Z,54.83
2016-12-17T04:47:34.259Z,54.54
2016-12-17T04:48:00.248Z,54.64
2016-12-17T04:48:26.236Z,54.64
2016-12-17T04:48:52.221Z,54.74
2016-12-17T04:49:18.207Z,54.64
2016-12-17T04:49:44.187Z,54.83
2016-12-17T04:50:10.173Z,54.83
2016-12-17T04:50:36.153Z,54.83
2016-12-17T04:51:02.136Z,54.64
2016-12-17T04:51:28.146Z,54.83
2016-12-17T04:51:54.129Z,54.64
2016-12-17T04:52:20.115Z,54.74
2016-12-17T04:52:46.098Z,54.83
2016-12-17T04:53:12.085Z,54.74
2016-12-17T04:53:38.067Z,54.74
2016-12-17T04:54:04.059Z,54.74
2016-12-17T04:54:30.045Z,54.83
2016-12-17T04:54:56.029Z,54.64
2016-12-17T04:55:22.011Z,54.83
2016-12-17T04:55:47.995Z,54.74
2016-12-17T04:56:13.978Z,54.83
2016-12-17T04:56:39.963Z,54.83
2016-12-17T04:57:05.946Z,54.83
2016-12-17T04:57:31.930Z,54.74
2016-12-17T04:57:57.934Z,54.74
2016-12-17T04:58:23.918Z,54.74
2016-12-17T04:58:49.902Z,54.93
2016-12-17T04:59:15.900Z,54.93
2016-12-17T04:59:41.880Z,54.64
2016-12-17T05:00:07.877Z,54.83
2016-12-17T05:00:33.854Z,54.74
2016-12-17T05:00:59.877Z,54.93
2016-12-17T05:01:25.890Z,54.74
2016-12-17T05:01:51.868Z,54.74
2016-12-17T05:02:17.862Z,54.74
2016-12-17T05:02:43.859Z,54.64
2016-12-17T05:03:09.842Z,54.83
2016-12-17T05:03:35.825Z,54.74
2016-12-17T05:04:01.835Z,54.74
2016-12-17T05:04:27.814Z,54.54
2016-12-17T05:04:53.798Z,54.83
2016-12-17T05:05:19.784Z,54.83
2016-12-17T05:05:45.764Z,54.64
2016-12-17T05:06:11.751Z,54.83
2016-12-17T05:06:37.737Z,54.83
2016-12-17T05:07:03.722Z,54.74
2016-12-17T05:07:29.703Z,54.64
2016-12-17T05:07:55.685Z,54.64
2016-12-17T05:08:21.669Z,54.83
2016-12-17T05:08:47.668Z,54.74
2016-12-17T05:09:13.648Z,54.83
2016-12-17T05:09:39.635Z,54.74
2016-12-17T05:10:05.618Z,54.83
2016-12-17T05:10:31.599Z,54.83
2016-12-17T05:10:57.582Z,54.74
2016-12-17T05:11:23.565Z,54.83
2016-12-17T05:11:49.548Z,54.83
2016-12-17T05:12:15.531Z,54.83
2016-12-17T05:12:41.517Z,54.74
2016-12-17T05:13:07.499Z,54.74
2016-12-17T05:13:33.488Z,54.64
2016-12-17T05:13:59.476Z,54.64
2016-12-17T05:14:25.458Z,54.74
2016-12-17T05:14:51.444Z,54.74
2016-12-17T05:15:17.427Z,54.93
2016-12-17T05:15:43.417Z,54.74
2016-12-17T05:16:09.407Z,54.83
2016-12-17T05:16:35.390Z,54.74
2016-12-17T05:17:01.377Z,54.93
2016-12-17T05:17:27.357Z,54.64
2016-12-17T05:17:53.341Z,54.74
2016-12-17T05:18:19.329Z,54.64
2016-12-17T05:18:45.310Z,54.64
2016-12-17T05:19:11.295Z,54.83
2016-12-17T05:19:37.288Z,54.93
2016-12-17T05:20:03.301Z,54.74
2016-12-17T05:20:29.301Z,54.74
2016-12-17T05:20:55.288Z,54.83
2016-12-17T05:21:21.270Z,54.74
2016-12-17T05:21:47.255Z,54.83
2016-12-17T05:22:13.240Z,54.74
2016-12-17T05:22:39.233Z,54.74
2016-12-17T05:23:05.215Z,54.74
2016-12-17T05:23:31.201Z,54.93
2016-12-17T05:23:57.192Z,54.74
2016-12-17T05:24:23.175Z,54.64
2016-12-17T05:24:49.162Z,54.61
2016-12-17T05:25:15.143Z,54.64
2016-12-17T05:25:41.128Z,54.74
2016-12-17T05:26:07.112Z,54.83
2016-12-17T05:26:33.098Z,54.64
2016-12-17T05:26:59.079Z,54.74
2016-12-17T05:27:25.068Z,54.83
2016-12-17T05:27:51.047Z,54.83
2016-12-17T05:28:17.031Z,54.83
2016-12-17T05:28:43.016Z,54.93
2016-12-17T05:29:08.999Z,54.83
2016-12-17T05:29:34.982Z,54.64
2016-12-17T05:30:00.967Z,54.83
2016-12-17T05:30:26.955Z,54.74
2016-12-17T05:30:52.939Z,54.74
2016-12-17T05:31:18.922Z,54.61
2016-12-17T05:31:44.908Z,54.74
2016-12-17T05:32:10.904Z,54.64
2016-12-17T05:32:36.882Z,54.74
2016-12-17T05:33:02.866Z,54.74
2016-12-17T05:33:28.853Z,54.83
2016-12-17T05:33:54.835Z,54.64
2016-12-17T05:34:20.818Z,54.74
2016-12-17T05:34:46.830Z,54.64